createdAt,value
2022-11-06T00:01:34.702Z,37.72
2022-11-06T00:06:50.835Z,38.42
2022-11-06T00:11:53.832Z,37.97
2022-11-06T00:16:56.683Z,38.78
2022-11-06T00:22:01.063Z,37.88
2022-11-06T00:27:03.923Z,38.20
2022-11-06T00:32:06.806Z,37.88
2022-11-06T00:37:11.037Z,37.22
2022-11-06T00:42:13.942Z,39.72
2022-11-06T00:47:16.824Z,38.78
2022-11-06T00:52:21.050Z,37.70
2022-11-06T00:57:23.924Z,39.13
2022-11-06T01:02:26.938Z,39.05
2022-11-06T01:07:31.249Z,38.78
2022-11-06T01:12:34.514Z,39.00
2022-11-06T01:17:37.432Z,39.50
2022-11-06T01:22:41.649Z,39.75
2022-11-06T01:27:44.499Z,39.28
2022-11-06T01:32:47.382Z,40.58
2022-11-06T01:37:51.592Z,38.97
2022-11-06T01:42:54.582Z,38.83
2022-11-06T01:47:57.755Z,38.65
2022-11-06T01:53:02.499Z,38.33
2022-11-06T01:58:08.612Z,38.53
2022-11-06T02:03:13.596Z,38.65
2022-11-06T02:08:21.578Z,38.33
2022-11-06T02:13:34.868Z,38.47
2022-11-06T02:19:22.489Z,38.35
2022-11-06T02:25:03.710Z,37.40
2022-11-06T02:30:10.410Z,36.88
2022-11-06T02:35:21.312Z,36.53
2022-11-06T02:40:29.171Z,37.28
2022-11-06T02:45:40.192Z,36.83
2022-11-06T02:50:47.869Z,36.45
2022-11-06T02:55:53.549Z,37.35
2022-11-06T03:01:01.680Z,36.53
2022-11-06T03:06:10.771Z,36.67
2022-11-06T03:11:18.835Z,36.58
2022-11-06T03:16:32.096Z,36.30
2022-11-06T03:21:44.102Z,40.15
2022-11-06T03:26:49.815Z,36.20
2022-11-06T03:31:57.336Z,36.40
2022-11-06T03:37:05.226Z,36.13
2022-11-06T03:42:13.310Z,36.10
2022-11-06T03:47:27.646Z,36.33
2022-11-06T03:52:35.083Z,36.10
2022-11-06T03:57:43.892Z,35.38
2022-11-06T04:02:52.636Z,36.65
2022-11-06T04:08:14.596Z,35.53
2022-11-06T04:13:38.251Z,35.70
2022-11-06T04:18:42.619Z,35.90
2022-11-06T04:24:10.296Z,36.10
2022-11-06T04:29:22.848Z,36.05
2022-11-06T04:34:36.840Z,36.33
2022-11-06T04:39:47.325Z,36.83
2022-11-06T04:44:52.743Z,36.10
2022-11-06T04:50:01.144Z,35.88
2022-11-06T04:55:04.163Z,35.95
2022-11-06T05:00:08.440Z,37.35
2022-11-06T05:05:12.831Z,36.42
2022-11-06T05:10:15.819Z,37.42
2022-11-06T05:15:18.745Z,36.72
2022-11-06T05:20:23.095Z,36.65
2022-11-06T05:25:26.690Z,36.85
2022-11-06T05:30:29.786Z,35.97
2022-11-06T05:35:34.200Z,36.35
2022-11-06T05:40:37.096Z,35.72
2022-11-06T05:45:40.094Z,35.67
2022-11-06T05:50:44.366Z,35.90
2022-11-06T05:55:52.209Z,35.45
2022-11-06T06:00:56.033Z,35.95
2022-11-06T06:06:00.271Z,37.00
2022-11-06T06:11:07.282Z,35.58
2022-11-06T06:16:10.181Z,35.63
2022-11-06T06:21:14.460Z,36.55
2022-11-06T06:26:17.500Z,36.20
2022-11-06T06:31:20.410Z,35.72
2022-11-06T06:36:24.658Z,39.63
2022-11-06T06:41:27.563Z,35.47
2022-11-06T06:46:30.469Z,35.47
2022-11-06T06:51:34.887Z,35.88
2022-11-06T06:56:37.792Z,35.92
2022-11-06T07:01:40.923Z,37.85
2022-11-06T07:06:45.229Z,35.15
2022-11-06T07:11:48.117Z,37.60
2022-11-06T07:16:53.773Z,35.75
2022-11-06T07:21:58.333Z,37.63
2022-11-06T07:27:01.225Z,38.85
2022-11-06T07:32:04.332Z,37.22
2022-11-06T07:37:09.009Z,38.25
2022-11-06T07:42:11.959Z,36.60
2022-11-06T07:47:31.336Z,37.25
2022-11-06T07:52:35.622Z,37.58
2022-11-06T07:57:38.688Z,39.30
2022-11-06T08:02:41.699Z,40.10
2022-11-06T08:07:45.978Z,38.63
2022-11-06T08:12:48.886Z,51.33
2022-11-06T08:17:51.792Z,43.65
2022-11-06T08:22:59.706Z,41.20
2022-11-06T08:28:03.758Z,41.85
2022-11-06T08:33:09.270Z,39.35
2022-11-06T08:38:13.883Z,38.72
2022-11-06T08:43:17.128Z,41.25
2022-11-06T08:48:20.439Z,41.55
2022-11-06T08:53:24.747Z,39.70
2022-11-06T08:58:27.653Z,40.08
2022-11-06T09:03:30.567Z,40.40
2022-11-06T09:08:34.968Z,38.08
2022-11-06T09:13:37.888Z,38.55
2022-11-06T09:18:40.802Z,38.53
2022-11-06T09:23:46.079Z,38.08
2022-11-06T09:28:49.122Z,38.38
2022-11-06T09:33:52.095Z,38.30
2022-11-06T09:38:56.332Z,38.30
2022-11-06T09:44:19.083Z,43.25
2022-11-06T09:49:27.465Z,39.55
2022-11-06T09:54:37.293Z,37.85
2022-11-06T09:59:41.783Z,41.42
2022-11-06T10:04:51.958Z,37.28
2022-11-06T10:10:03.622Z,37.38
2022-11-06T10:15:18.512Z,39.20
2022-11-06T10:20:30.113Z,37.92
2022-11-06T10:25:57.922Z,37.35
2022-11-06T10:31:10.954Z,37.85
2022-11-06T10:36:16.761Z,37.35
2022-11-06T10:41:25.079Z,37.88
2022-11-06T10:46:34.727Z,39.38
2022-11-06T10:51:53.969Z,40.78
2022-11-06T10:57:16.345Z,39.00
2022-11-06T11:02:30.342Z,38.03
2022-11-06T11:07:35.445Z,38.97
2022-11-06T11:12:39.716Z,39.03
2022-11-06T11:17:43.718Z,39.40
2022-11-06T11:22:46.682Z,39.45
2022-11-06T11:27:51.026Z,39.95
2022-11-06T11:32:54.718Z,39.38
2022-11-06T11:38:11.730Z,39.40
2022-11-06T11:43:25.325Z,40.45
2022-11-06T11:48:28.554Z,39.85
2022-11-06T11:53:32.461Z,40.95
2022-11-06T11:58:39.022Z,40.53
2022-11-06T12:03:45.163Z,39.45
2022-11-06T12:08:51.090Z,42.60
2022-11-06T12:14:26.321Z,41.35
2022-11-06T12:19:33.348Z,39.33
2022-11-06T12:24:42.494Z,39.05
2022-11-06T12:29:51.224Z,39.13
2022-11-06T12:35:02.345Z,38.55
2022-11-06T12:40:22.198Z,38.72
2022-11-06T12:45:39.388Z,38.47
2022-11-06T12:50:46.607Z,39.58
2022-11-06T12:55:56.091Z,40.05
2022-11-06T13:01:09.217Z,40.72
2022-11-06T13:06:17.164Z,39.05
2022-11-06T13:11:31.479Z,39.28
2022-11-06T13:16:42.246Z,38.95
2022-11-06T13:22:13.180Z,39.80
2022-11-06T13:27:25.677Z,39.20
2022-11-06T13:32:32.766Z,39.47
2022-11-06T13:37:40.809Z,39.67
2022-11-06T13:42:49.207Z,39.88
2022-11-06T13:48:05.835Z,40.15
2022-11-06T13:53:18.437Z,38.42
2022-11-06T13:58:33.447Z,40.40
2022-11-06T14:04:03.940Z,40.20
2022-11-06T14:09:10.464Z,39.65
2022-11-06T14:14:15.700Z,39.55
2022-11-06T14:19:27.847Z,40.22
2022-11-06T14:24:34.259Z,40.05
2022-11-06T14:29:57.465Z,43.72
2022-11-06T14:35:50.575Z,45.55
2022-11-06T14:40:53.608Z,39.22
2022-11-06T14:46:00.342Z,39.70
2022-11-06T14:51:07.095Z,40.75
2022-11-06T14:56:11.742Z,39.75
2022-11-06T15:01:16.901Z,39.85
2022-11-06T15:06:39.933Z,40.72
2022-11-06T15:12:00.369Z,40.20
2022-11-06T15:17:06.773Z,40.22
2022-11-06T15:22:21.737Z,38.83
2022-11-06T15:27:29.238Z,40.13
2022-11-06T15:32:38.596Z,39.03
2022-11-06T15:37:45.413Z,39.50
2022-11-06T15:42:48.656Z,39.60
2022-11-06T15:47:56.678Z,39.17
2022-11-06T15:53:21.743Z,40.38
2022-11-06T15:58:31.512Z,40.35
2022-11-06T16:03:45.181Z,39.65
2022-11-06T16:08:51.671Z,42.08
2022-11-06T16:13:55.995Z,42.65
2022-11-06T16:19:06.276Z,40.40
2022-11-06T16:24:16.578Z,40.90
2022-11-06T16:29:22.420Z,39.95
2022-11-06T16:34:37.467Z,41.33
2022-11-06T16:39:49.901Z,40.65
2022-11-06T16:45:18.695Z,42.50
2022-11-06T16:50:44.152Z,41.83
2022-11-06T16:55:56.677Z,41.15
2022-11-06T17:01:02.395Z,42.60
2022-11-06T17:06:17.866Z,44.17
2022-11-06T17:11:23.237Z,53.45
2022-11-06T17:16:28.621Z,43.85
2022-11-06T17:21:32.533Z,40.97
2022-11-06T17:26:42.602Z,40.58
2022-11-06T17:31:45.553Z,40.88
2022-11-06T17:36:48.483Z,40.97
2022-11-06T17:41:53.576Z,39.30
2022-11-06T17:46:56.942Z,39.85
2022-11-06T17:52:00.909Z,39.65
2022-11-06T17:57:07.982Z,39.40
2022-11-06T18:02:14.325Z,40.92
2022-11-06T18:07:17.721Z,40.15
2022-11-06T18:12:25.358Z,40.42
2022-11-06T18:17:28.531Z,40.42
2022-11-06T18:22:35.383Z,40.85
2022-11-06T18:28:18.224Z,39.88
2022-11-06T18:33:48.782Z,39.35
2022-11-06T18:39:31.029Z,38.53
2022-11-06T18:44:41.380Z,37.92
2022-11-06T18:49:44.670Z,37.35
2022-11-06T18:54:48.197Z,37.75
2022-11-06T18:59:54.522Z,37.42
2022-11-06T19:04:57.601Z,37.88
2022-11-06T19:10:01.905Z,37.42
2022-11-06T19:15:07.400Z,38.63
2022-11-06T19:20:14.809Z,38.22
2022-11-06T19:25:18.549Z,38.28
2022-11-06T19:30:22.971Z,37.25
2022-11-06T19:35:26.073Z,39.45
2022-11-06T19:40:30.119Z,37.13
2022-11-06T19:45:35.483Z,37.33
2022-11-06T19:50:58.737Z,37.45
2022-11-06T19:56:04.710Z,37.30
2022-11-06T20:01:16.344Z,37.28
2022-11-06T20:06:20.485Z,37.70
2022-11-06T20:11:29.781Z,37.53
2022-11-06T20:16:34.462Z,37.97
2022-11-06T20:21:49.758Z,37.70
2022-11-06T20:26:52.857Z,37.67
2022-11-06T20:32:04.416Z,37.97
2022-11-06T20:37:07.599Z,38.08
2022-11-06T20:42:10.571Z,37.28
2022-11-06T20:47:14.859Z,37.25
2022-11-06T20:52:30.181Z,39.45
2022-11-06T20:57:33.150Z,37.17
2022-11-06T21:02:37.681Z,38.92
2022-11-06T21:07:40.849Z,37.42
2022-11-06T21:12:54.050Z,37.97
2022-11-06T21:17:58.385Z,37.78
2022-11-06T21:23:38.537Z,38.42
2022-11-06T21:28:43.338Z,41.95
2022-11-06T21:33:50.209Z,37.13
2022-11-06T21:38:54.238Z,36.88
2022-11-06T21:43:57.973Z,37.50
2022-11-06T21:49:02.276Z,37.60
2022-11-06T21:54:22.994Z,37.40
2022-11-06T21:59:28.356Z,37.40
2022-11-06T22:04:32.710Z,37.28
2022-11-06T22:09:35.640Z,36.83
2022-11-06T22:14:38.569Z,37.25
2022-11-06T22:19:42.909Z,37.45
2022-11-06T22:24:46.999Z,37.58
2022-11-06T22:29:49.927Z,37.60
2022-11-06T22:34:54.168Z,37.65
2022-11-06T22:39:57.167Z,36.88
2022-11-06T22:45:00.147Z,37.28
2022-11-06T22:50:04.865Z,37.15
2022-11-06T22:55:08.469Z,37.05
2022-11-06T23:00:14.216Z,37.75
2022-11-06T23:05:18.622Z,37.85
2022-11-06T23:10:28.764Z,37.15
2022-11-06T23:15:32.390Z,36.85
2022-11-06T23:20:36.752Z,38.17
2022-11-06T23:25:39.718Z,37.10
2022-11-06T23:30:42.689Z,37.42
2022-11-06T23:35:46.993Z,36.67
2022-11-06T23:40:49.950Z,36.65
2022-11-06T23:46:24.808Z,37.45
2022-11-06T23:51:29.119Z,37.00
2022-11-06T23:56:34.704Z,36.97
